sensor_id;sensor_type;location;lat;lon;timestamp;P1;durP1;ratioP1;P2;durP2;ratioP2
82558;SDS011;72227;42.004;21.364;2023-08-24T00:45:23;20.92;;;15.50;;
82558;SDS011;72227;42.004;21.364;2023-08-24T00:53:00;17.70;;;15.30;;
82558;SDS011;72227;42.004;21.364;2023-08-24T00:55:26;17.83;;;15.05;;
82558;SDS011;72227;42.004;21.364;2023-08-24T00:57:53;17.30;;;14.68;;
82558;SDS011;72227;42.004;21.364;2023-08-24T01:00:19;18.08;;;15.20;;
82558;SDS011;72227;42.004;21.364;2023-08-24T01:02:46;15.65;;;13.68;;
82558;SDS011;72227;42.004;21.364;2023-08-24T01:05:13;17.42;;;14.75;;
82558;SDS011;72227;42.004;21.364;2023-08-24T01:07:39;17.00;;;15.20;;
82558;SDS011;72227;42.004;21.364;2023-08-24T01:10:05;20.17;;;16.13;;
82558;SDS011;72227;42.004;21.364;2023-08-24T01:15:31;21.00;;;15.50;;
82558;SDS011;72227;42.004;21.364;2023-08-24T01:18:00;19.15;;;15.40;;
82558;SDS011;72227;42.004;21.364;2023-08-24T01:20:29;18.42;;;13.68;;
82558;SDS011;72227;42.004;21.364;2023-08-24T01:28:05;16.90;;;14.60;;
82558;SDS011;72227;42.004;21.364;2023-08-24T01:30:32;17.67;;;14.43;;
82558;SDS011;72227;42.004;21.364;2023-08-24T01:43:31;17.52;;;14.13;;
82558;SDS011;72227;42.004;21.364;2023-08-24T01:46:02;19.63;;;16.02;;
82558;SDS011;72227;42.004;21.364;2023-08-24T01:48:29;19.20;;;15.77;;
82558;SDS011;72227;42.004;21.364;2023-08-24T03:27:26;19.98;;;16.05;;
82558;SDS011;72227;42.004;21.364;2023-08-24T03:35:04;17.60;;;15.27;;
82558;SDS011;72227;42.004;21.364;2023-08-24T03:40:07;18.55;;;16.20;;
82558;SDS011;72227;42.004;21.364;2023-08-24T03:42:33;19.80;;;16.20;;
82558;SDS011;72227;42.004;21.364;2023-08-24T03:47:37;18.27;;;15.75;;
82558;SDS011;72227;42.004;21.364;2023-08-24T03:50:03;19.60;;;15.80;;
82558;SDS011;72227;42.004;21.364;2023-08-24T03:52:30;18.08;;;14.82;;
82558;SDS011;72227;42.004;21.364;2023-08-24T05:12:07;26.45;;;20.23;;
82558;SDS011;72227;42.004;21.364;2023-08-24T05:25:35;23.63;;;18.80;;
82558;SDS011;72227;42.004;21.364;2023-08-24T05:35:49;28.70;;;20.92;;
82558;SDS011;72227;42.004;21.364;2023-08-24T05:38:16;26.52;;;19.95;;
82558;SDS011;72227;42.004;21.364;2023-08-24T05:40:43;23.17;;;18.38;;
82558;SDS011;72227;42.004;21.364;2023-08-24T05:43:09;22.42;;;19.48;;
82558;SDS011;72227;42.004;21.364;2023-08-24T05:53:23;20.85;;;18.45;;
82558;SDS011;72227;42.004;21.364;2023-08-24T05:58:25;22.23;;;18.45;;
82558;SDS011;72227;42.004;21.364;2023-08-24T06:01:02;20.08;;;16.73;;
82558;SDS011;72227;42.004;21.364;2023-08-24T06:03:28;22.08;;;17.63;;
82558;SDS011;72227;42.004;21.364;2023-08-24T06:06:00;23.63;;;17.60;;
82558;SDS011;72227;42.004;21.364;2023-08-24T06:08:27;25.30;;;20.52;;
82558;SDS011;72227;42.004;21.364;2023-08-24T07:40:04;27.77;;;15.15;;
82558;SDS011;72227;42.004;21.364;2023-08-24T07:42:46;20.77;;;15.27;;
82558;SDS011;72227;42.004;21.364;2023-08-24T07:45:18;19.05;;;14.23;;
82558;SDS011;72227;42.004;21.364;2023-08-24T07:52:52;15.73;;;13.85;;
82558;SDS011;72227;42.004;21.364;2023-08-24T08:22:29;18.30;;;14.45;;
82558;SDS011;72227;42.004;21.364;2023-08-24T08:27:36;18.77;;;14.63;;
82558;SDS011;72227;42.004;21.364;2023-08-24T08:30:02;16.85;;;13.95;;
82558;SDS011;72227;42.004;21.364;2023-08-24T08:32:30;19.60;;;14.30;;
82558;SDS011;72227;42.004;21.364;2023-08-24T08:34:56;19.50;;;14.85;;
82558;SDS011;72227;42.004;21.364;2023-08-24T08:37:23;18.10;;;15.57;;
82558;SDS011;72227;42.004;21.364;2023-08-24T08:39:49;19.50;;;15.25;;
82558;SDS011;72227;42.004;21.364;2023-08-24T08:42:15;17.00;;;14.85;;
82558;SDS011;72227;42.004;21.364;2023-08-24T08:44:43;19.33;;;15.00;;
82558;SDS011;72227;42.004;21.364;2023-08-24T09:00:06;16.85;;;15.07;;
82558;SDS011;72227;42.004;21.364;2023-08-24T09:02:34;14.95;;;12.30;;
82558;SDS011;72227;42.004;21.364;2023-08-24T09:10:15;17.40;;;11.57;;
82558;SDS011;72227;42.004;21.364;2023-08-24T09:12:51;18.27;;;13.10;;
82558;SDS011;72227;42.004;21.364;2023-08-24T09:15:27;12.90;;;11.35;;
82558;SDS011;72227;42.004;21.364;2023-08-24T09:20:27;13.50;;;11.60;;
82558;SDS011;72227;42.004;21.364;2023-08-24T09:22:54;16.02;;;11.35;;
82558;SDS011;72227;42.004;21.364;2023-08-24T09:25:22;14.35;;;12.07;;
82558;SDS011;72227;42.004;21.364;2023-08-24T09:27:58;19.13;;;13.32;;
82558;SDS011;72227;42.004;21.364;2023-08-24T09:30:31;16.35;;;13.32;;
82558;SDS011;72227;42.004;21.364;2023-08-24T09:33:03;16.25;;;13.07;;
82558;SDS011;72227;42.004;21.364;2023-08-24T09:35:29;15.55;;;13.95;;
82558;SDS011;72227;42.004;21.364;2023-08-24T09:37:55;17.13;;;12.68;;
82558;SDS011;72227;42.004;21.364;2023-08-24T09:40:25;17.67;;;13.30;;
82558;SDS011;72227;42.004;21.364;2023-08-24T09:42:51;17.02;;;12.65;;
82558;SDS011;72227;42.004;21.364;2023-08-24T09:45:17;14.93;;;13.23;;
82558;SDS011;72227;42.004;21.364;2023-08-24T09:47:50;14.20;;;12.00;;
82558;SDS011;72227;42.004;21.364;2023-08-24T09:50:17;15.40;;;13.43;;
82558;SDS011;72227;42.004;21.364;2023-08-24T09:52:43;18.85;;;13.13;;
82558;SDS011;72227;42.004;21.364;2023-08-24T09:55:10;14.95;;;13.27;;
82558;SDS011;72227;42.004;21.364;2023-08-24T09:57:38;16.75;;;13.20;;
82558;SDS011;72227;42.004;21.364;2023-08-24T10:00:05;14.68;;;12.45;;
82558;SDS011;72227;42.004;21.364;2023-08-24T10:02:36;16.13;;;13.40;;
82558;SDS011;72227;42.004;21.364;2023-08-24T10:05:02;16.52;;;13.27;;
82558;SDS011;72227;42.004;21.364;2023-08-24T10:07:29;16.23;;;13.38;;
82558;SDS011;72227;42.004;21.364;2023-08-24T10:09:58;15.05;;;12.50;;
82558;SDS011;72227;42.004;21.364;2023-08-24T10:12:28;15.45;;;13.48;;
82558;SDS011;72227;42.004;21.364;2023-08-24T10:15:01;17.23;;;12.50;;
82558;SDS011;72227;42.004;21.364;2023-08-24T10:20:04;14.23;;;11.82;;
82558;SDS011;72227;42.004;21.364;2023-08-24T10:22:34;13.40;;;12.05;;
82558;SDS011;72227;42.004;21.364;2023-08-24T10:25:01;19.58;;;13.90;;
82558;SDS011;72227;42.004;21.364;2023-08-24T10:27:27;14.65;;;12.13;;
82558;SDS011;72227;42.004;21.364;2023-08-24T10:29:55;16.52;;;12.07;;
82558;SDS011;72227;42.004;21.364;2023-08-24T10:32:21;15.98;;;12.52;;
82558;SDS011;72227;42.004;21.364;2023-08-24T10:34:49;16.15;;;12.23;;
82558;SDS011;72227;42.004;21.364;2023-08-24T10:37:15;16.23;;;12.77;;
82558;SDS011;72227;42.004;21.364;2023-08-24T10:42:11;17.42;;;12.20;;
82558;SDS011;72227;42.004;21.364;2023-08-24T10:44:38;14.32;;;11.65;;
82558;SDS011;72227;42.004;21.364;2023-08-24T10:47:12;13.65;;;12.20;;
82558;SDS011;72227;42.004;21.364;2023-08-24T10:49:45;15.45;;;11.93;;
82558;SDS011;72227;42.004;21.364;2023-08-24T10:52:30;13.85;;;10.90;;
82558;SDS011;72227;42.004;21.364;2023-08-24T10:55:02;13.20;;;11.90;;
82558;SDS011;72227;42.004;21.364;2023-08-24T10:57:36;15.90;;;12.18;;
82558;SDS011;72227;42.004;21.364;2023-08-24T11:00:09;14.75;;;12.10;;
82558;SDS011;72227;42.004;21.364;2023-08-24T11:02:45;18.85;;;11.60;;
82558;SDS011;72227;42.004;21.364;2023-08-24T11:05:19;14.50;;;11.98;;
82558;SDS011;72227;42.004;21.364;2023-08-24T11:08:02;12.23;;;10.85;;
82558;SDS011;72227;42.004;21.364;2023-08-24T11:10:37;12.88;;;11.43;;
82558;SDS011;72227;42.004;21.364;2023-08-24T11:13:14;13.93;;;11.65;;
82558;SDS011;72227;42.004;21.364;2023-08-24T11:15:41;16.30;;;11.90;;
82558;SDS011;72227;42.004;21.364;2023-08-24T11:18:10;14.85;;;11.27;;
82558;SDS011;72227;42.004;21.364;2023-08-24T11:23:02;63.63;;;15.85;;
82558;SDS011;72227;42.004;21.364;2023-08-24T11:25:29;24.63;;;11.75;;
82558;SDS011;72227;42.004;21.364;2023-08-24T11:27:56;34.90;;;12.93;;
82558;SDS011;72227;42.004;21.364;2023-08-24T11:30:23;22.00;;;11.88;;
82558;SDS011;72227;42.004;21.364;2023-08-24T11:32:52;15.55;;;11.40;;
82558;SDS011;72227;42.004;21.364;2023-08-24T11:35:18;12.50;;;9.18;;
82558;SDS011;72227;42.004;21.364;2023-08-24T11:37:50;17.40;;;9.18;;
82558;SDS011;72227;42.004;21.364;2023-08-24T11:40:17;14.10;;;9.50;;
82558;SDS011;72227;42.004;21.364;2023-08-24T11:42:44;12.73;;;9.80;;
82558;SDS011;72227;42.004;21.364;2023-08-24T11:45:13;11.95;;;8.77;;
82558;SDS011;72227;42.004;21.364;2023-08-24T11:47:39;12.15;;;8.77;;
82558;SDS011;72227;42.004;21.364;2023-08-24T12:26:23;27.13;;;14.88;;
82558;SDS011;72227;42.004;21.364;2023-08-24T12:28:50;19.55;;;13.48;;
82558;SDS011;72227;42.004;21.364;2023-08-24T12:31:17;18.02;;;13.15;;
82558;SDS011;72227;42.004;21.364;2023-08-24T12:33:43;22.23;;;13.18;;
82558;SDS011;72227;42.004;21.364;2023-08-24T12:36:10;17.02;;;12.60;;
82558;SDS011;72227;42.004;21.364;2023-08-24T12:38:36;17.65;;;12.18;;
82558;SDS011;72227;42.004;21.364;2023-08-24T12:41:02;16.67;;;12.95;;
82558;SDS011;72227;42.004;21.364;2023-08-24T12:43:28;15.05;;;11.80;;
82558;SDS011;72227;42.004;21.364;2023-08-24T12:45:54;16.90;;;12.52;;
82558;SDS011;72227;42.004;21.364;2023-08-24T12:48:20;15.57;;;12.38;;
82558;SDS011;72227;42.004;21.364;2023-08-24T12:50:46;14.45;;;11.52;;
82558;SDS011;72227;42.004;21.364;2023-08-24T12:53:12;18.50;;;13.48;;
82558;SDS011;72227;42.004;21.364;2023-08-24T12:55:39;20.75;;;13.20;;
82558;SDS011;72227;42.004;21.364;2023-08-24T12:58:05;18.25;;;13.95;;
82558;SDS011;72227;42.004;21.364;2023-08-24T13:00:32;17.25;;;14.15;;
82558;SDS011;72227;42.004;21.364;2023-08-24T13:02:58;18.80;;;13.20;;
82558;SDS011;72227;42.004;21.364;2023-08-24T13:05:24;19.58;;;16.15;;
82558;SDS011;72227;42.004;21.364;2023-08-24T13:07:50;18.75;;;14.27;;
82558;SDS011;72227;42.004;21.364;2023-08-24T13:10:16;17.73;;;14.88;;
82558;SDS011;72227;42.004;21.364;2023-08-24T13:12:42;18.20;;;14.35;;
82558;SDS011;72227;42.004;21.364;2023-08-24T13:15:09;17.27;;;15.38;;
82558;SDS011;72227;42.004;21.364;2023-08-24T13:17:36;19.08;;;15.10;;
82558;SDS011;72227;42.004;21.364;2023-08-24T13:20:03;19.55;;;14.30;;
82558;SDS011;72227;42.004;21.364;2023-08-24T13:22:31;17.05;;;14.07;;
82558;SDS011;72227;42.004;21.364;2023-08-24T13:24:57;19.13;;;14.52;;
82558;SDS011;72227;42.004;21.364;2023-08-24T13:27:23;22.20;;;16.33;;
82558;SDS011;72227;42.004;21.364;2023-08-24T13:29:49;21.52;;;15.20;;
82558;SDS011;72227;42.004;21.364;2023-08-24T13:32:18;21.90;;;15.15;;
82558;SDS011;72227;42.004;21.364;2023-08-24T13:34:46;19.02;;;14.57;;
82558;SDS011;72227;42.004;21.364;2023-08-24T13:37:13;17.48;;;13.05;;
82558;SDS011;72227;42.004;21.364;2023-08-24T13:42:24;19.73;;;15.50;;
82558;SDS011;72227;42.004;21.364;2023-08-24T13:44:50;17.92;;;14.57;;
82558;SDS011;72227;42.004;21.364;2023-08-24T13:47:17;18.30;;;13.82;;
82558;SDS011;72227;42.004;21.364;2023-08-24T13:52:19;18.90;;;13.95;;
82558;SDS011;72227;42.004;21.364;2023-08-24T13:54:45;16.90;;;12.50;;
82558;SDS011;72227;42.004;21.364;2023-08-24T13:57:12;18.90;;;13.68;;
82558;SDS011;72227;42.004;21.364;2023-08-24T13:59:39;18.52;;;14.43;;
82558;SDS011;72227;42.004;21.364;2023-08-24T14:02:05;16.90;;;13.35;;
82558;SDS011;72227;42.004;21.364;2023-08-24T14:07:07;20.15;;;14.35;;
82558;SDS011;72227;42.004;21.364;2023-08-24T14:09:34;19.13;;;13.40;;
82558;SDS011;72227;42.004;21.364;2023-08-24T14:12:00;18.08;;;13.57;;
82558;SDS011;72227;42.004;21.364;2023-08-24T14:22:27;19.55;;;15.18;;
82558;SDS011;72227;42.004;21.364;2023-08-24T14:24:53;20.70;;;16.60;;
82558;SDS011;72227;42.004;21.364;2023-08-24T14:27:19;22.15;;;17.02;;
82558;SDS011;72227;42.004;21.364;2023-08-24T14:29:45;25.77;;;17.17;;
82558;SDS011;72227;42.004;21.364;2023-08-24T14:32:11;24.88;;;16.35;;
82558;SDS011;72227;42.004;21.364;2023-08-24T14:34:38;23.73;;;16.88;;
82558;SDS011;72227;42.004;21.364;2023-08-24T14:37:04;23.45;;;16.23;;
82558;SDS011;72227;42.004;21.364;2023-08-24T14:39:30;21.05;;;16.08;;
82558;SDS011;72227;42.004;21.364;2023-08-24T14:41:56;23.55;;;16.52;;
82558;SDS011;72227;42.004;21.364;2023-08-24T14:44:22;24.35;;;17.25;;
82558;SDS011;72227;42.004;21.364;2023-08-24T14:46:48;21.55;;;16.13;;
82558;SDS011;72227;42.004;21.364;2023-08-24T14:49:14;18.98;;;15.13;;
82558;SDS011;72227;42.004;21.364;2023-08-24T14:51:44;18.42;;;14.63;;
82558;SDS011;72227;42.004;21.364;2023-08-24T14:54:10;18.92;;;14.48;;
82558;SDS011;72227;42.004;21.364;2023-08-24T14:56:39;24.30;;;15.13;;
82558;SDS011;72227;42.004;21.364;2023-08-24T14:59:05;20.27;;;15.18;;
82558;SDS011;72227;42.004;21.364;2023-08-24T15:01:31;25.30;;;15.32;;
82558;SDS011;72227;42.004;21.364;2023-08-24T15:03:58;19.42;;;14.60;;
82558;SDS011;72227;42.004;21.364;2023-08-24T15:06:24;16.58;;;14.50;;
82558;SDS011;72227;42.004;21.364;2023-08-24T15:08:50;19.90;;;13.93;;
82558;SDS011;72227;42.004;21.364;2023-08-24T15:11:17;18.13;;;14.05;;
82558;SDS011;72227;42.004;21.364;2023-08-24T15:13:44;18.92;;;14.90;;
82558;SDS011;72227;42.004;21.364;2023-08-24T15:16:10;21.67;;;15.50;;
82558;SDS011;72227;42.004;21.364;2023-08-24T15:18:36;28.27;;;16.67;;
82558;SDS011;72227;42.004;21.364;2023-08-24T15:21:02;25.80;;;16.88;;
82558;SDS011;72227;42.004;21.364;2023-08-24T15:23:29;24.77;;;16.58;;
82558;SDS011;72227;42.004;21.364;2023-08-24T15:25:59;24.48;;;16.65;;
82558;SDS011;72227;42.004;21.364;2023-08-24T15:28:25;20.70;;;16.17;;
82558;SDS011;72227;42.004;21.364;2023-08-24T15:30:52;22.42;;;16.08;;
82558;SDS011;72227;42.004;21.364;2023-08-24T15:33:18;21.17;;;15.70;;
82558;SDS011;72227;42.004;21.364;2023-08-24T15:35:45;22.80;;;16.40;;
82558;SDS011;72227;42.004;21.364;2023-08-24T15:38:11;20.00;;;16.33;;
82558;SDS011;72227;42.004;21.364;2023-08-24T15:40:38;21.90;;;15.55;;
82558;SDS011;72227;42.004;21.364;2023-08-24T15:43:04;21.60;;;16.77;;
82558;SDS011;72227;42.004;21.364;2023-08-24T15:45:31;24.92;;;15.90;;
82558;SDS011;72227;42.004;21.364;2023-08-24T15:47:58;22.70;;;16.80;;
82558;SDS011;72227;42.004;21.364;2023-08-24T15:50:24;21.65;;;16.23;;
82558;SDS011;72227;42.004;21.364;2023-08-24T15:52:50;25.00;;;15.55;;
82558;SDS011;72227;42.004;21.364;2023-08-24T15:55:29;23.60;;;16.25;;
82558;SDS011;72227;42.004;21.364;2023-08-24T15:58:00;25.02;;;17.08;;
82558;SDS011;72227;42.004;21.364;2023-08-24T16:00:27;25.08;;;15.93;;
82558;SDS011;72227;42.004;21.364;2023-08-24T16:02:53;23.85;;;16.95;;
82558;SDS011;72227;42.004;21.364;2023-08-24T16:05:19;20.48;;;15.25;;
82558;SDS011;72227;42.004;21.364;2023-08-24T16:07:45;22.52;;;15.32;;
82558;SDS011;72227;42.004;21.364;2023-08-24T16:10:11;23.35;;;16.73;;
82558;SDS011;72227;42.004;21.364;2023-08-24T16:12:37;24.70;;;16.38;;
82558;SDS011;72227;42.004;21.364;2023-08-24T16:15:04;19.35;;;14.93;;
82558;SDS011;72227;42.004;21.364;2023-08-24T16:17:30;21.80;;;14.68;;
82558;SDS011;72227;42.004;21.364;2023-08-24T16:19:57;23.80;;;15.27;;
82558;SDS011;72227;42.004;21.364;2023-08-24T16:22:23;21.80;;;15.23;;
82558;SDS011;72227;42.004;21.364;2023-08-24T16:24:49;19.05;;;14.32;;
82558;SDS011;72227;42.004;21.364;2023-08-24T16:27:15;18.20;;;13.40;;
82558;SDS011;72227;42.004;21.364;2023-08-24T16:29:41;18.77;;;13.32;;
82558;SDS011;72227;42.004;21.364;2023-08-24T16:32:07;16.65;;;13.13;;
82558;SDS011;72227;42.004;21.364;2023-08-24T16:34:33;19.58;;;12.38;;
82558;SDS011;72227;42.004;21.364;2023-08-24T16:36:59;17.73;;;14.02;;
82558;SDS011;72227;42.004;21.364;2023-08-24T16:39:27;18.00;;;13.52;;
82558;SDS011;72227;42.004;21.364;2023-08-24T16:44:24;18.42;;;13.13;;
82558;SDS011;72227;42.004;21.364;2023-08-24T16:46:50;20.08;;;13.30;;
82558;SDS011;72227;42.004;21.364;2023-08-24T16:49:16;20.80;;;14.40;;
82558;SDS011;72227;42.004;21.364;2023-08-24T16:51:42;21.23;;;13.25;;
82558;SDS011;72227;42.004;21.364;2023-08-24T16:54:08;16.80;;;13.40;;
82558;SDS011;72227;42.004;21.364;2023-08-24T16:56:34;23.50;;;13.52;;
82558;SDS011;72227;42.004;21.364;2023-08-24T16:59:01;18.08;;;14.82;;
82558;SDS011;72227;42.004;21.364;2023-08-24T17:01:27;21.55;;;14.98;;
82558;SDS011;72227;42.004;21.364;2023-08-24T17:03:53;21.63;;;14.60;;
82558;SDS011;72227;42.004;21.364;2023-08-24T17:06:19;23.30;;;16.13;;
82558;SDS011;72227;42.004;21.364;2023-08-24T17:08:45;18.88;;;15.25;;
82558;SDS011;72227;42.004;21.364;2023-08-24T17:11:11;22.50;;;14.40;;
82558;SDS011;72227;42.004;21.364;2023-08-24T17:13:37;19.80;;;15.10;;
82558;SDS011;72227;42.004;21.364;2023-08-24T17:16:03;19.40;;;16.95;;
82558;SDS011;72227;42.004;21.364;2023-08-24T17:18:29;25.50;;;16.70;;
82558;SDS011;72227;42.004;21.364;2023-08-24T17:20:56;22.08;;;17.13;;
82558;SDS011;72227;42.004;21.364;2023-08-24T17:23:22;24.15;;;15.75;;
82558;SDS011;72227;42.004;21.364;2023-08-24T17:25:48;24.20;;;16.48;;
82558;SDS011;72227;42.004;21.364;2023-08-24T17:28:14;27.92;;;16.85;;
82558;SDS011;72227;42.004;21.364;2023-08-24T17:30:47;21.38;;;15.85;;
82558;SDS011;72227;42.004;21.364;2023-08-24T17:33:13;22.13;;;15.48;;
82558;SDS011;72227;42.004;21.364;2023-08-24T17:35:39;27.73;;;16.75;;
82558;SDS011;72227;42.004;21.364;2023-08-24T17:38:05;23.77;;;18.60;;
82558;SDS011;72227;42.004;21.364;2023-08-24T17:40:31;28.92;;;18.67;;
82558;SDS011;72227;42.004;21.364;2023-08-24T17:42:58;28.45;;;20.73;;
82558;SDS011;72227;42.004;21.364;2023-08-24T17:45:24;39.95;;;26.65;;
82558;SDS011;72227;42.004;21.364;2023-08-24T17:47:50;41.50;;;28.60;;
82558;SDS011;72227;42.004;21.364;2023-08-24T17:50:17;45.90;;;28.27;;
82558;SDS011;72227;42.004;21.364;2023-08-24T17:52:44;37.08;;;26.80;;
82558;SDS011;72227;42.004;21.364;2023-08-24T17:55:10;42.08;;;28.17;;
82558;SDS011;72227;42.004;21.364;2023-08-24T17:57:36;40.25;;;27.40;;
82558;SDS011;72227;42.004;21.364;2023-08-24T18:00:02;38.03;;;26.65;;
82558;SDS011;72227;42.004;21.364;2023-08-24T18:02:34;36.35;;;25.52;;
82558;SDS011;72227;42.004;21.364;2023-08-24T18:05:00;36.55;;;26.15;;
82558;SDS011;72227;42.004;21.364;2023-08-24T18:07:28;38.55;;;25.83;;
82558;SDS011;72227;42.004;21.364;2023-08-24T18:09:54;35.78;;;25.55;;
82558;SDS011;72227;42.004;21.364;2023-08-24T18:12:22;35.45;;;24.58;;
82558;SDS011;72227;42.004;21.364;2023-08-24T18:14:48;31.00;;;24.38;;
82558;SDS011;72227;42.004;21.364;2023-08-24T18:17:14;31.20;;;24.08;;
82558;SDS011;72227;42.004;21.364;2023-08-24T18:19:40;33.72;;;24.67;;
82558;SDS011;72227;42.004;21.364;2023-08-24T18:22:06;33.33;;;25.08;;
82558;SDS011;72227;42.004;21.364;2023-08-24T18:24:32;31.08;;;21.70;;
82558;SDS011;72227;42.004;21.364;2023-08-24T18:26:58;28.48;;;19.92;;
82558;SDS011;72227;42.004;21.364;2023-08-24T18:29:24;31.02;;;22.67;;
82558;SDS011;72227;42.004;21.364;2023-08-24T18:31:51;37.65;;;22.45;;
82558;SDS011;72227;42.004;21.364;2023-08-24T18:34:17;32.60;;;22.13;;
82558;SDS011;72227;42.004;21.364;2023-08-24T18:36:43;28.98;;;23.15;;
82558;SDS011;72227;42.004;21.364;2023-08-24T18:39:09;28.90;;;22.10;;
82558;SDS011;72227;42.004;21.364;2023-08-24T18:41:35;31.40;;;23.58;;
82558;SDS011;72227;42.004;21.364;2023-08-24T18:44:01;33.20;;;24.10;;
82558;SDS011;72227;42.004;21.364;2023-08-24T18:46:28;30.83;;;21.50;;
82558;SDS011;72227;42.004;21.364;2023-08-24T18:48:54;42.75;;;24.75;;
82558;SDS011;72227;42.004;21.364;2023-08-24T18:51:20;29.88;;;21.60;;
82558;SDS011;72227;42.004;21.364;2023-08-24T18:53:47;30.30;;;20.90;;
82558;SDS011;72227;42.004;21.364;2023-08-24T18:56:14;26.85;;;20.50;;
82558;SDS011;72227;42.004;21.364;2023-08-24T18:58:40;26.92;;;21.10;;
82558;SDS011;72227;42.004;21.364;2023-08-24T19:01:07;31.98;;;20.40;;
82558;SDS011;72227;42.004;21.364;2023-08-24T19:03:39;29.17;;;20.90;;
82558;SDS011;72227;42.004;21.364;2023-08-24T19:06:05;27.90;;;20.08;;
82558;SDS011;72227;42.004;21.364;2023-08-24T19:08:31;26.38;;;18.95;;
82558;SDS011;72227;42.004;21.364;2023-08-24T19:10:57;33.33;;;20.30;;
82558;SDS011;72227;42.004;21.364;2023-08-24T19:13:25;24.63;;;19.05;;
82558;SDS011;72227;42.004;21.364;2023-08-24T19:15:51;23.70;;;18.77;;
82558;SDS011;72227;42.004;21.364;2023-08-24T19:18:17;25.30;;;18.80;;
82558;SDS011;72227;42.004;21.364;2023-08-24T19:20:43;21.27;;;17.65;;
82558;SDS011;72227;42.004;21.364;2023-08-24T19:23:09;24.85;;;18.40;;
82558;SDS011;72227;42.004;21.364;2023-08-24T19:25:35;22.83;;;18.02;;
82558;SDS011;72227;42.004;21.364;2023-08-24T19:28:01;24.95;;;18.90;;
82558;SDS011;72227;42.004;21.364;2023-08-24T19:30:27;27.15;;;21.05;;
82558;SDS011;72227;42.004;21.364;2023-08-24T19:32:53;24.92;;;17.55;;
82558;SDS011;72227;42.004;21.364;2023-08-24T19:35:20;23.00;;;17.40;;
82558;SDS011;72227;42.004;21.364;2023-08-24T19:37:46;21.85;;;17.80;;
82558;SDS011;72227;42.004;21.364;2023-08-24T19:40:12;24.17;;;18.17;;
82558;SDS011;72227;42.004;21.364;2023-08-24T19:42:38;25.63;;;17.77;;
82558;SDS011;72227;42.004;21.364;2023-08-24T19:45:04;28.55;;;19.42;;
82558;SDS011;72227;42.004;21.364;2023-08-24T19:47:31;27.08;;;20.13;;
82558;SDS011;72227;42.004;21.364;2023-08-24T19:49:57;28.98;;;20.88;;
82558;SDS011;72227;42.004;21.364;2023-08-24T19:52:23;30.70;;;21.08;;
82558;SDS011;72227;42.004;21.364;2023-08-24T19:54:49;24.60;;;19.65;;
82558;SDS011;72227;42.004;21.364;2023-08-24T19:57:15;26.83;;;21.02;;
82558;SDS011;72227;42.004;21.364;2023-08-24T19:59:41;23.17;;;19.30;;
82558;SDS011;72227;42.004;21.364;2023-08-24T20:02:07;26.80;;;19.65;;
82558;SDS011;72227;42.004;21.364;2023-08-24T20:04:33;25.05;;;20.58;;
82558;SDS011;72227;42.004;21.364;2023-08-24T20:06:59;25.02;;;20.13;;
82558;SDS011;72227;42.004;21.364;2023-08-24T20:09:26;36.88;;;20.48;;
82558;SDS011;72227;42.004;21.364;2023-08-24T20:11:52;35.13;;;19.85;;
82558;SDS011;72227;42.004;21.364;2023-08-24T20:14:18;31.95;;;20.48;;
82558;SDS011;72227;42.004;21.364;2023-08-24T20:16:44;29.83;;;22.88;;
82558;SDS011;72227;42.004;21.364;2023-08-24T20:19:10;26.20;;;20.88;;
82558;SDS011;72227;42.004;21.364;2023-08-24T20:21:36;29.48;;;20.10;;
82558;SDS011;72227;42.004;21.364;2023-08-24T20:24:02;28.00;;;20.45;;
82558;SDS011;72227;42.004;21.364;2023-08-24T20:26:29;25.35;;;18.92;;
82558;SDS011;72227;42.004;21.364;2023-08-24T20:28:55;26.30;;;18.80;;
82558;SDS011;72227;42.004;21.364;2023-08-24T20:31:21;24.42;;;20.15;;
82558;SDS011;72227;42.004;21.364;2023-08-24T20:33:47;27.08;;;19.33;;
82558;SDS011;72227;42.004;21.364;2023-08-24T20:36:13;24.13;;;18.15;;
82558;SDS011;72227;42.004;21.364;2023-08-24T20:38:39;23.55;;;19.05;;
82558;SDS011;72227;42.004;21.364;2023-08-24T20:41:05;26.42;;;18.58;;
82558;SDS011;72227;42.004;21.364;2023-08-24T20:43:32;24.48;;;18.38;;
82558;SDS011;72227;42.004;21.364;2023-08-24T20:45:58;26.15;;;19.73;;
82558;SDS011;72227;42.004;21.364;2023-08-24T20:48:24;24.05;;;18.50;;
82558;SDS011;72227;42.004;21.364;2023-08-24T20:50:53;23.25;;;18.90;;
82558;SDS011;72227;42.004;21.364;2023-08-24T20:53:20;25.88;;;19.23;;
82558;SDS011;72227;42.004;21.364;2023-08-24T20:55:47;22.23;;;17.38;;
82558;SDS011;72227;42.004;21.364;2023-08-24T20:58:13;23.63;;;18.00;;
82558;SDS011;72227;42.004;21.364;2023-08-24T21:00:39;21.23;;;17.58;;
82558;SDS011;72227;42.004;21.364;2023-08-24T21:03:05;19.75;;;17.23;;
82558;SDS011;72227;42.004;21.364;2023-08-24T21:05:31;19.88;;;17.23;;
82558;SDS011;72227;42.004;21.364;2023-08-24T21:07:58;20.20;;;16.95;;
82558;SDS011;72227;42.004;21.364;2023-08-24T21:10:25;20.38;;;16.60;;
82558;SDS011;72227;42.004;21.364;2023-08-24T21:12:51;19.40;;;17.30;;
82558;SDS011;72227;42.004;21.364;2023-08-24T21:15:17;25.05;;;17.58;;
82558;SDS011;72227;42.004;21.364;2023-08-24T21:17:44;22.73;;;18.95;;
82558;SDS011;72227;42.004;21.364;2023-08-24T21:20:10;24.85;;;18.25;;
82558;SDS011;72227;42.004;21.364;2023-08-24T21:22:36;23.60;;;18.35;;
82558;SDS011;72227;42.004;21.364;2023-08-24T21:25:04;22.38;;;18.17;;
82558;SDS011;72227;42.004;21.364;2023-08-24T21:27:30;22.58;;;18.15;;
82558;SDS011;72227;42.004;21.364;2023-08-24T21:29:56;20.52;;;17.70;;
82558;SDS011;72227;42.004;21.364;2023-08-24T21:32:22;22.77;;;17.90;;
82558;SDS011;72227;42.004;21.364;2023-08-24T21:34:48;23.15;;;19.25;;
82558;SDS011;72227;42.004;21.364;2023-08-24T21:37:14;21.92;;;18.10;;
82558;SDS011;72227;42.004;21.364;2023-08-24T21:39:41;22.60;;;17.30;;
82558;SDS011;72227;42.004;21.364;2023-08-24T21:42:07;23.27;;;17.52;;
82558;SDS011;72227;42.004;21.364;2023-08-24T21:44:33;24.45;;;18.65;;
82558;SDS011;72227;42.004;21.364;2023-08-24T21:46:59;21.30;;;17.08;;
82558;SDS011;72227;42.004;21.364;2023-08-24T21:49:25;20.35;;;16.58;;
82558;SDS011;72227;42.004;21.364;2023-08-24T21:51:51;19.65;;;17.35;;
82558;SDS011;72227;42.004;21.364;2023-08-24T21:54:17;21.35;;;17.00;;
82558;SDS011;72227;42.004;21.364;2023-08-24T21:56:43;20.10;;;16.45;;
82558;SDS011;72227;42.004;21.364;2023-08-24T21:59:09;21.05;;;18.73;;
82558;SDS011;72227;42.004;21.364;2023-08-24T22:01:35;20.65;;;17.45;;
82558;SDS011;72227;42.004;21.364;2023-08-24T22:04:03;24.83;;;17.73;;
82558;SDS011;72227;42.004;21.364;2023-08-24T22:06:29;22.95;;;16.23;;
82558;SDS011;72227;42.004;21.364;2023-08-24T22:08:55;21.30;;;16.98;;
82558;SDS011;72227;42.004;21.364;2023-08-24T22:11:21;21.60;;;17.92;;
82558;SDS011;72227;42.004;21.364;2023-08-24T22:13:47;20.63;;;17.77;;
82558;SDS011;72227;42.004;21.364;2023-08-24T22:16:13;24.58;;;18.63;;